createdAt,value
2023-03-05T00:02:10.507Z,4.77
2023-03-05T00:04:37.568Z,4.22
2023-03-05T00:07:05.577Z,3.88
2023-03-05T00:09:33.874Z,6.97
2023-03-05T00:12:01.986Z,3.85
2023-03-05T00:14:28.911Z,5.20
2023-03-05T00:16:55.818Z,5.55
2023-03-05T00:19:22.780Z,5.38
2023-03-05T00:21:49.739Z,5.15
2023-03-05T00:24:18.471Z,4.85
2023-03-05T00:26:46.378Z,3.93
2023-03-05T00:29:18.536Z,3.28
2023-03-05T00:31:46.072Z,3.75
2023-03-05T00:34:16.288Z,4.93
2023-03-05T00:36:46.128Z,5.15
2023-03-05T00:39:14.358Z,5.37
2023-03-05T00:41:41.700Z,3.72
2023-03-05T00:44:08.719Z,4.18
2023-03-05T00:46:36.247Z,4.25
2023-03-05T00:49:03.411Z,5.00
2023-03-05T00:51:30.460Z,3.50
2023-03-05T00:53:57.526Z,4.47
2023-03-05T00:56:24.533Z,4.38
2023-03-05T00:58:51.768Z,9.23
2023-03-05T01:01:19.243Z,3.88
2023-03-05T01:03:46.539Z,3.23
2023-03-05T01:06:16.600Z,4.63
2023-03-05T01:08:45.161Z,5.72
2023-03-05T01:11:12.385Z,4.32
2023-03-05T01:13:39.417Z,3.72
2023-03-05T01:16:07.459Z,3.13
2023-03-05T01:18:34.894Z,4.32
2023-03-05T01:21:02.245Z,5.40
2023-03-05T01:23:29.257Z,3.75
2023-03-05T01:25:58.461Z,4.07
2023-03-05T01:28:26.465Z,10.33
2023-03-05T01:30:53.812Z,4.72
2023-03-05T01:33:20.939Z,3.30
2023-03-05T01:35:49.402Z,3.40
2023-03-05T01:38:17.157Z,5.18
2023-03-05T01:40:45.044Z,5.63
2023-03-05T01:43:12.199Z,6.22
2023-03-05T01:46:00.080Z,5.70
2023-03-05T01:48:27.794Z,4.45
2023-03-05T01:50:54.758Z,3.63
2023-03-05T01:53:21.898Z,3.70
2023-03-05T01:55:49.498Z,4.72
2023-03-05T01:58:17.602Z,3.20
2023-03-05T02:00:48.559Z,5.13
2023-03-05T02:03:16.175Z,3.67
2023-03-05T02:05:44.635Z,3.47
2023-03-05T02:08:17.497Z,5.68
2023-03-05T02:10:49.149Z,3.83
2023-03-05T02:13:22.686Z,3.80
2023-03-05T02:15:50.030Z,3.00
2023-03-05T02:18:18.881Z,3.53
2023-03-05T02:20:54.215Z,4.10
2023-03-05T02:23:22.812Z,3.00
2023-03-05T02:25:50.146Z,4.05
2023-03-05T02:28:23.818Z,4.10
2023-03-05T02:30:51.104Z,4.83
2023-03-05T02:33:20.411Z,4.63
2023-03-05T02:35:48.476Z,3.92
2023-03-05T02:38:19.352Z,5.18
2023-03-05T02:40:46.424Z,4.10
2023-03-05T02:43:16.153Z,4.70
2023-03-05T02:45:43.266Z,5.65
2023-03-05T02:48:10.329Z,4.65
2023-03-05T02:50:39.821Z,5.47
2023-03-05T02:53:07.447Z,6.90
2023-03-05T02:55:34.606Z,6.30
2023-03-05T02:58:01.628Z,5.03
2023-03-05T03:00:29.306Z,4.20
2023-03-05T03:02:56.488Z,5.30
2023-03-05T03:05:23.624Z,5.75
2023-03-05T03:07:51.161Z,5.20
2023-03-05T03:10:18.435Z,5.07
2023-03-05T03:12:45.762Z,4.38
2023-03-05T03:15:15.474Z,3.70
2023-03-05T03:17:43.653Z,4.32
2023-03-05T03:20:15.511Z,7.80
2023-03-05T03:22:44.155Z,3.88
2023-03-05T03:25:14.896Z,5.25
2023-03-05T03:27:41.876Z,2.67
2023-03-05T03:30:09.778Z,4.70
2023-03-05T03:32:36.921Z,4.77
2023-03-05T03:35:04.315Z,5.07
2023-03-05T03:37:31.322Z,5.45
2023-03-05T03:39:58.283Z,3.47
2023-03-05T03:42:25.816Z,5.90
2023-03-05T03:44:52.874Z,4.17
2023-03-05T03:47:19.883Z,4.20
2023-03-05T03:49:46.905Z,5.82
2023-03-05T03:52:13.875Z,4.60
2023-03-05T03:54:41.181Z,5.65
2023-03-05T03:57:08.361Z,5.40
2023-03-05T03:59:35.363Z,4.10
2023-03-05T04:02:02.303Z,5.22
2023-03-05T04:04:30.438Z,4.07
2023-03-05T04:06:57.794Z,4.35
2023-03-05T04:09:24.865Z,4.40
2023-03-05T04:11:51.899Z,3.58
2023-03-05T04:14:18.886Z,5.57
2023-03-05T04:16:45.898Z,4.53
2023-03-05T04:19:12.963Z,3.88
2023-03-05T04:21:40.266Z,4.07
2023-03-05T04:24:08.450Z,4.80
2023-03-05T04:26:35.885Z,4.45
2023-03-05T04:29:02.902Z,5.57
2023-03-05T04:31:30.007Z,4.55
2023-03-05T04:33:57.135Z,3.80
2023-03-05T04:36:24.284Z,4.20
2023-03-05T04:38:51.339Z,4.38
2023-03-05T04:41:18.339Z,4.63
2023-03-05T04:43:45.323Z,3.15
2023-03-05T04:46:12.419Z,5.40
2023-03-05T04:48:39.601Z,4.82
2023-03-05T04:51:06.592Z,3.85
2023-03-05T04:53:33.697Z,3.63
2023-03-05T04:56:01.739Z,3.75
2023-03-05T04:58:29.598Z,4.50
2023-03-05T05:01:02.654Z,3.97
2023-03-05T05:03:29.891Z,3.95
2023-03-05T05:05:59.528Z,5.25
2023-03-05T05:08:27.732Z,6.15
2023-03-05T05:10:59.091Z,5.80
2023-03-05T05:13:26.335Z,3.45
2023-03-05T05:15:53.802Z,4.18
2023-03-05T05:18:21.368Z,2.80
2023-03-05T05:20:48.646Z,6.22
2023-03-05T05:23:16.632Z,4.00
2023-03-05T05:25:43.730Z,5.60
2023-03-05T05:28:11.690Z,4.43
2023-03-05T05:30:39.677Z,4.20
2023-03-05T05:33:06.674Z,4.28
2023-03-05T05:35:34.901Z,3.53
2023-03-05T05:38:02.078Z,3.80
2023-03-05T05:40:29.244Z,3.53
2023-03-05T05:42:56.479Z,6.20
2023-03-05T05:45:23.605Z,3.53
2023-03-05T05:47:50.688Z,4.50
2023-03-05T05:50:19.972Z,3.80
2023-03-05T05:52:47.336Z,3.35
2023-03-05T05:55:14.414Z,3.47
2023-03-05T05:57:41.458Z,5.07
2023-03-05T06:00:11.183Z,3.50
2023-03-05T06:02:43.017Z,3.35
2023-03-05T06:05:12.943Z,6.13
2023-03-05T06:07:40.037Z,3.50
2023-03-05T06:10:08.120Z,3.78
2023-03-05T06:12:35.272Z,4.43
2023-03-05T06:15:02.306Z,4.78
2023-03-05T06:17:31.247Z,4.38
2023-03-05T06:19:59.116Z,3.80
2023-03-05T06:22:26.518Z,3.70
2023-03-05T06:24:53.494Z,5.83
2023-03-05T06:27:20.562Z,4.13
2023-03-05T06:29:47.562Z,4.82
2023-03-05T06:32:14.558Z,3.88
2023-03-05T06:34:41.569Z,3.75
2023-03-05T06:37:08.588Z,3.77
2023-03-05T06:39:35.605Z,6.57
2023-03-05T06:42:02.751Z,4.22
2023-03-05T06:44:29.773Z,5.15
2023-03-05T06:46:56.804Z,7.63
2023-03-05T06:49:23.918Z,4.00
2023-03-05T06:51:51.065Z,5.47
2023-03-05T06:54:19.456Z,3.58
2023-03-05T06:56:47.662Z,6.25
2023-03-05T06:59:16.491Z,5.65
2023-03-05T07:01:44.393Z,5.10
2023-03-05T07:04:12.783Z,4.70
2023-03-05T07:06:40.554Z,3.88
2023-03-05T07:09:10.508Z,3.95
2023-03-05T07:11:37.488Z,4.35
2023-03-05T07:14:04.620Z,5.37
2023-03-05T07:16:33.530Z,5.20
2023-03-05T07:19:05.234Z,5.80
2023-03-05T07:21:34.203Z,5.45
2023-03-05T07:24:02.673Z,10.48
2023-03-05T07:26:31.193Z,5.50
2023-03-05T07:28:59.091Z,4.40
2023-03-05T07:31:31.093Z,5.78
2023-03-05T07:33:59.909Z,4.80
2023-03-05T07:36:27.628Z,5.78
2023-03-05T07:38:54.750Z,6.13
2023-03-05T07:41:23.716Z,4.28
2023-03-05T07:43:53.617Z,5.50
2023-03-05T07:46:23.846Z,7.05
2023-03-05T07:48:51.506Z,7.22
2023-03-05T07:51:20.246Z,6.37
2023-03-05T07:53:49.520Z,5.28
2023-03-05T07:56:36.368Z,5.32
2023-03-05T07:59:07.126Z,5.60
2023-03-05T08:01:35.241Z,6.75
2023-03-05T08:04:03.924Z,6.03
2023-03-05T08:06:31.462Z,6.78
2023-03-05T08:08:59.355Z,8.82
2023-03-05T08:11:28.586Z,7.65
2023-03-05T08:13:58.139Z,8.60
2023-03-05T08:16:52.397Z,6.87
2023-03-05T08:19:20.069Z,6.28
2023-03-05T08:21:47.432Z,7.53
2023-03-05T08:24:15.046Z,5.93
2023-03-05T08:26:42.505Z,6.90
2023-03-05T08:29:10.928Z,7.10
2023-03-05T08:31:38.980Z,6.95
2023-03-05T08:34:06.987Z,9.60
2023-03-05T08:36:34.060Z,7.07
2023-03-05T08:39:01.101Z,11.80
2023-03-05T08:41:28.519Z,6.77
2023-03-05T08:43:55.715Z,6.70
2023-03-05T08:46:23.205Z,7.65
2023-03-05T08:48:50.356Z,8.30
2023-03-05T08:51:20.243Z,7.97
2023-03-05T08:53:47.900Z,10.07
2023-03-05T08:56:15.822Z,8.80
2023-03-05T08:58:44.032Z,10.20
2023-03-05T09:01:11.259Z,7.07
2023-03-05T09:03:38.704Z,8.27
2023-03-05T09:06:08.501Z,12.00
2023-03-05T09:08:36.491Z,7.90
2023-03-05T09:11:05.439Z,7.80
2023-03-05T09:13:33.346Z,7.63
2023-03-05T09:16:06.660Z,8.50
2023-03-05T09:18:37.061Z,7.87
2023-03-05T09:21:10.286Z,7.57
2023-03-05T09:23:37.979Z,8.85
2023-03-05T09:26:07.399Z,6.45
2023-03-05T09:28:34.405Z,8.90
2023-03-05T09:31:05.560Z,7.80
2023-03-05T09:33:33.141Z,9.20
2023-03-05T09:36:01.119Z,8.32
2023-03-05T09:38:29.707Z,9.38
2023-03-05T09:41:03.679Z,10.13
2023-03-05T09:43:49.447Z,10.27
2023-03-05T09:46:39.226Z,7.72
2023-03-05T09:49:15.436Z,11.68
2023-03-05T09:51:46.761Z,8.52
2023-03-05T09:54:21.709Z,15.07
2023-03-05T09:56:56.743Z,13.33
2023-03-05T09:59:36.121Z,10.50
2023-03-05T10:02:26.948Z,9.23
2023-03-05T10:05:22.965Z,11.85
2023-03-05T10:07:58.008Z,10.80
2023-03-05T10:10:36.471Z,10.37
2023-03-05T10:13:15.445Z,10.63
2023-03-05T10:16:08.140Z,9.75
2023-03-05T10:18:54.254Z,10.23
2023-03-05T10:21:44.199Z,8.63
2023-03-05T10:24:46.501Z,12.47
2023-03-05T10:27:26.725Z,11.43
2023-03-05T10:30:28.688Z,9.05
2023-03-05T10:32:55.655Z,12.43
2023-03-05T10:35:53.201Z,10.10
2023-03-05T10:38:34.439Z,11.00
2023-03-05T10:41:13.929Z,10.68
2023-03-05T10:43:50.733Z,13.05
2023-03-05T10:46:21.070Z,9.10
2023-03-05T10:48:59.333Z,10.93
2023-03-05T10:51:41.208Z,10.50
2023-03-05T10:54:25.631Z,11.95
2023-03-05T10:57:17.104Z,12.43
2023-03-05T10:59:48.966Z,10.40
2023-03-05T11:02:16.878Z,14.13
2023-03-05T11:04:44.050Z,14.30
2023-03-05T11:07:17.113Z,10.88
2023-03-05T11:10:18.646Z,11.65
2023-03-05T11:12:46.569Z,9.95
2023-03-05T11:15:13.463Z,11.45
2023-03-05T11:17:49.163Z,10.47
2023-03-05T11:20:28.371Z,11.50
2023-03-05T11:23:17.069Z,11.10
2023-03-05T11:25:56.253Z,10.98
2023-03-05T11:28:33.576Z,12.40
2023-03-05T11:31:20.870Z,11.17
2023-03-05T11:34:26.092Z,9.90
2023-03-05T11:36:53.341Z,13.13
2023-03-05T11:39:22.687Z,12.65
2023-03-05T11:41:53.475Z,11.27
2023-03-05T11:44:23.580Z,8.97
2023-03-05T11:46:54.479Z,10.68
2023-03-05T11:49:26.094Z,8.65
2023-03-05T11:52:02.273Z,9.63
2023-03-05T11:55:06.113Z,9.07
2023-03-05T11:58:07.927Z,8.67
2023-03-05T12:00:41.545Z,13.45
2023-03-05T12:03:17.911Z,12.23
2023-03-05T12:05:50.874Z,12.23
2023-03-05T12:08:25.819Z,10.68
2023-03-05T12:10:53.566Z,12.37
2023-03-05T12:13:33.836Z,9.95
2023-03-05T12:16:06.897Z,10.05
2023-03-05T12:19:04.466Z,10.13
2023-03-05T12:21:38.451Z,11.57
2023-03-05T12:24:26.708Z,9.00
2023-03-05T12:27:04.093Z,14.30
2023-03-05T12:29:54.519Z,10.15
2023-03-05T12:32:34.099Z,10.45
2023-03-05T12:35:01.238Z,9.98
2023-03-05T12:37:31.394Z,10.20
2023-03-05T12:39:58.491Z,12.07
2023-03-05T12:42:28.617Z,10.10
2023-03-05T12:45:15.998Z,8.80
2023-03-05T12:47:44.265Z,8.30
2023-03-05T12:50:29.671Z,11.20
2023-03-05T12:53:11.629Z,9.68
2023-03-05T12:55:47.682Z,10.82
2023-03-05T12:58:28.288Z,11.05
2023-03-05T13:00:58.708Z,12.25
2023-03-05T13:03:34.159Z,12.23
2023-03-05T13:06:04.251Z,8.98
2023-03-05T13:08:35.473Z,9.02
2023-03-05T13:11:09.020Z,9.40
2023-03-05T13:13:41.689Z,8.77
2023-03-05T13:16:22.518Z,9.17
2023-03-05T13:18:50.788Z,8.70
2023-03-05T13:21:20.502Z,7.97
2023-03-05T13:23:58.343Z,8.55
2023-03-05T13:26:43.552Z,8.55
2023-03-05T13:29:20.364Z,10.17
2023-03-05T13:31:56.539Z,7.20
2023-03-05T13:34:29.842Z,8.60
2023-03-05T13:37:19.020Z,7.90
2023-03-05T13:39:59.930Z,8.05
2023-03-05T13:42:30.136Z,10.20
2023-03-05T13:45:23.347Z,9.95
2023-03-05T13:47:59.431Z,13.32
2023-03-05T13:50:35.346Z,11.93
2023-03-05T13:53:14.872Z,9.15
2023-03-05T13:55:41.934Z,9.30
2023-03-05T13:58:52.740Z,8.50
2023-03-05T14:01:38.511Z,9.15
2023-03-05T14:04:13.833Z,9.10
2023-03-05T14:06:48.216Z,10.15
2023-03-05T14:09:25.100Z,8.63
2023-03-05T14:12:05.714Z,9.80
2023-03-05T14:14:38.826Z,7.90
2023-03-05T14:17:27.556Z,9.93
2023-03-05T14:20:30.277Z,12.13
2023-03-05T14:23:00.033Z,13.73
2023-03-05T14:25:36.649Z,9.30
2023-03-05T14:28:07.082Z,8.02
2023-03-05T14:30:36.318Z,11.15
2023-03-05T14:33:03.765Z,11.23
2023-03-05T14:35:31.144Z,9.00
2023-03-05T14:37:59.908Z,10.88
2023-03-05T14:40:34.299Z,8.40
2023-03-05T14:43:01.214Z,10.27
2023-03-05T14:45:31.567Z,8.20
2023-03-05T14:48:01.267Z,8.43
2023-03-05T14:50:30.428Z,7.93
2023-03-05T14:53:00.455Z,9.30
2023-03-05T14:55:32.936Z,9.50
2023-03-05T14:58:07.194Z,9.18
2023-03-05T15:00:34.327Z,9.83
2023-03-05T15:03:01.622Z,11.55
2023-03-05T15:05:29.031Z,10.20
2023-03-05T15:07:56.261Z,9.00
2023-03-05T15:10:25.784Z,7.82
2023-03-05T15:12:53.529Z,9.43
2023-03-05T15:15:21.767Z,9.13
2023-03-05T15:17:52.270Z,8.75
2023-03-05T15:20:26.789Z,7.97
2023-03-05T15:22:54.454Z,7.40
2023-03-05T15:25:24.369Z,6.73
2023-03-05T15:27:51.400Z,6.32
2023-03-05T15:30:29.709Z,7.22
2023-03-05T15:32:58.569Z,9.32
2023-03-05T15:35:26.171Z,6.97
2023-03-05T15:37:53.458Z,7.60
2023-03-05T15:40:21.304Z,7.60
2023-03-05T15:42:48.871Z,7.85
2023-03-05T15:45:16.035Z,6.40
2023-03-05T15:47:43.023Z,8.63
2023-03-05T15:50:10.810Z,9.13
2023-03-05T15:52:37.828Z,7.95
2023-03-05T15:55:05.194Z,7.82
2023-03-05T15:57:36.217Z,6.93
2023-03-05T16:00:06.448Z,7.68
2023-03-05T16:02:37.451Z,7.83
2023-03-05T16:05:05.576Z,7.45
2023-03-05T16:07:36.501Z,7.05
2023-03-05T16:10:04.539Z,6.38
2023-03-05T16:12:40.799Z,7.05
2023-03-05T16:15:10.495Z,8.70
2023-03-05T16:17:39.529Z,8.52
2023-03-05T16:20:07.264Z,6.95
2023-03-05T16:22:34.307Z,7.03
2023-03-05T16:25:01.506Z,9.95
2023-03-05T16:27:30.704Z,7.70
2023-03-05T16:29:58.308Z,8.05
2023-03-05T16:32:25.703Z,8.10
2023-03-05T16:34:52.809Z,9.30
2023-03-05T16:37:22.388Z,7.45
2023-03-05T16:39:49.523Z,8.17
2023-03-05T16:42:17.058Z,7.30
2023-03-05T16:44:44.403Z,9.68
2023-03-05T16:47:12.432Z,8.43
2023-03-05T16:49:40.270Z,10.55
2023-03-05T16:52:18.314Z,24.03
2023-03-05T16:54:46.561Z,11.68
2023-03-05T16:57:13.760Z,10.75
2023-03-05T16:59:40.849Z,10.23
2023-03-05T17:02:08.341Z,9.10
2023-03-05T17:04:39.033Z,9.37
2023-03-05T17:07:06.250Z,9.60
2023-03-05T17:09:33.378Z,9.40
2023-03-05T17:12:01.023Z,9.32
2023-03-05T17:14:28.288Z,12.45
2023-03-05T17:16:55.397Z,9.20
2023-03-05T17:19:22.595Z,10.35
2023-03-05T17:21:52.297Z,9.38
2023-03-05T17:24:21.553Z,11.50
2023-03-05T17:26:50.349Z,10.73
2023-03-05T17:29:19.138Z,10.83
2023-03-05T17:31:47.012Z,11.70
2023-03-05T17:34:14.704Z,13.38
2023-03-05T17:36:42.066Z,11.35
2023-03-05T17:39:09.310Z,10.80
2023-03-05T17:41:36.401Z,9.13
2023-03-05T17:44:04.295Z,9.65
2023-03-05T17:46:31.917Z,9.57
2023-03-05T17:48:59.090Z,11.88
2023-03-05T17:51:26.348Z,11.40
2023-03-05T17:53:53.706Z,9.37
2023-03-05T17:56:22.306Z,13.32
2023-03-05T17:58:49.808Z,16.20
2023-03-05T18:01:32.417Z,15.55
2023-03-05T18:04:00.097Z,9.55
2023-03-05T18:06:27.811Z,12.30
2023-03-05T18:08:54.856Z,9.05
2023-03-05T18:11:22.160Z,9.38
2023-03-05T18:13:49.463Z,10.90
2023-03-05T18:16:18.373Z,8.82
2023-03-05T18:18:46.207Z,12.80
2023-03-05T18:21:18.170Z,12.10
2023-03-05T18:23:45.375Z,11.15
2023-03-05T18:26:12.438Z,10.27
2023-03-05T18:28:39.921Z,9.50
2023-03-05T18:31:07.199Z,10.03
2023-03-05T18:33:34.361Z,10.75
2023-03-05T18:36:01.914Z,11.75
2023-03-05T18:38:30.106Z,10.73
2023-03-05T18:40:57.611Z,12.70
2023-03-05T18:43:25.134Z,10.77
2023-03-05T18:45:55.028Z,14.80
2023-03-05T18:48:22.737Z,10.88
2023-03-05T18:50:53.929Z,11.93
2023-03-05T18:53:21.972Z,13.70
2023-03-05T18:55:51.304Z,13.40
2023-03-05T18:58:19.241Z,13.20
2023-03-05T19:00:47.351Z,12.73
2023-03-05T19:03:16.072Z,13.98
2023-03-05T19:05:43.329Z,12.93
2023-03-05T19:08:12.822Z,13.63
2023-03-05T19:10:40.879Z,12.13
2023-03-05T19:13:32.864Z,14.52
2023-03-05T19:16:12.598Z,13.82
2023-03-05T19:19:17.906Z,14.32
2023-03-05T19:21:59.848Z,13.30
2023-03-05T19:24:30.940Z,13.65
2023-03-05T19:27:01.198Z,23.40
2023-03-05T19:29:33.182Z,18.52
2023-03-05T19:32:24.164Z,15.13
2023-03-05T19:34:55.911Z,19.27
2023-03-05T19:37:23.409Z,12.60
2023-03-05T19:39:50.873Z,13.88
2023-03-05T19:42:18.490Z,14.68
2023-03-05T19:44:46.458Z,12.13
2023-03-05T19:47:21.303Z,14.13
2023-03-05T19:49:48.888Z,13.63
2023-03-05T19:52:16.056Z,21.58
2023-03-05T19:54:43.012Z,14.15
2023-03-05T19:57:10.141Z,15.35
2023-03-05T19:59:37.262Z,14.80
2023-03-05T20:02:04.282Z,13.35
2023-03-05T20:04:31.349Z,14.73
2023-03-05T20:06:58.346Z,11.77
2023-03-05T20:09:25.514Z,15.27
2023-03-05T20:11:52.563Z,16.00
2023-03-05T20:14:19.588Z,13.15
2023-03-05T20:16:46.619Z,15.10
2023-03-05T20:19:18.562Z,15.07
2023-03-05T20:21:45.867Z,14.43
2023-03-05T20:24:18.684Z,13.60
2023-03-05T20:26:47.047Z,16.60
2023-03-05T20:29:17.737Z,12.25
2023-03-05T20:31:45.949Z,25.70
2023-03-05T20:34:15.904Z,12.43
2023-03-05T20:36:43.138Z,10.03
2023-03-05T20:39:10.308Z,11.77
2023-03-05T20:41:39.279Z,10.52
2023-03-05T20:44:07.892Z,12.43
2023-03-05T20:46:39.456Z,10.18
2023-03-05T20:49:24.986Z,11.63
2023-03-05T20:51:52.046Z,12.60
2023-03-05T20:54:20.430Z,11.80
2023-03-05T20:56:47.940Z,10.75
2023-03-05T20:59:15.562Z,14.65
2023-03-05T21:01:42.613Z,11.87
2023-03-05T21:04:09.700Z,12.70
2023-03-05T21:06:37.249Z,23.15
2023-03-05T21:09:04.724Z,15.73
2023-03-05T21:11:32.450Z,12.20
2023-03-05T21:13:59.598Z,13.03
2023-03-05T21:16:28.066Z,13.85
2023-03-05T21:18:57.480Z,11.85
2023-03-05T21:21:25.433Z,11.02
2023-03-05T21:23:53.590Z,13.30
2023-03-05T21:26:21.305Z,12.90
2023-03-05T21:28:48.406Z,12.75
2023-03-05T21:31:21.139Z,12.00
2023-03-05T21:33:48.717Z,12.52
2023-03-05T21:36:19.147Z,11.68
2023-03-05T21:38:47.987Z,11.77
2023-03-05T21:41:15.374Z,13.48
2023-03-05T21:43:42.946Z,13.00
2023-03-05T21:46:11.071Z,14.50
2023-03-05T21:48:38.462Z,10.10
2023-03-05T21:51:46.319Z,10.50
2023-03-05T21:54:13.277Z,10.73
2023-03-05T21:56:40.363Z,11.07
2023-03-05T21:59:07.433Z,9.82
2023-03-05T22:01:34.619Z,13.27
2023-03-05T22:04:01.726Z,10.83
2023-03-05T22:06:28.748Z,13.48
2023-03-05T22:08:56.756Z,9.32
2023-03-05T22:11:23.826Z,9.43
2023-03-05T22:13:50.968Z,9.48
2023-03-05T22:16:23.254Z,10.13
2023-03-05T22:18:51.110Z,9.07
2023-03-05T22:21:21.469Z,7.63
2023-03-05T22:23:49.921Z,9.75
2023-03-05T22:26:16.961Z,9.88
2023-03-05T22:28:44.164Z,7.67
2023-03-05T22:31:12.242Z,9.25
2023-03-05T22:33:39.558Z,7.38
2023-03-05T22:36:12.061Z,7.78
2023-03-05T22:38:39.394Z,8.13
2023-03-05T22:41:11.398Z,7.57
2023-03-05T22:43:38.902Z,7.70
2023-03-05T22:46:14.582Z,8.07
2023-03-05T22:48:42.234Z,7.55
2023-03-05T22:51:10.553Z,9.57
2023-03-05T22:53:38.812Z,8.83
2023-03-05T22:56:14.584Z,7.60
2023-03-05T22:58:42.903Z,7.78
2023-03-05T23:01:25.480Z,7.88
2023-03-05T23:04:29.082Z,7.40
2023-03-05T23:06:56.376Z,7.73
2023-03-05T23:09:23.378Z,6.47
2023-03-05T23:11:50.506Z,8.90
2023-03-05T23:14:17.461Z,8.10
2023-03-05T23:16:44.476Z,6.93
2023-03-05T23:19:11.530Z,7.90
2023-03-05T23:21:38.595Z,7.65
2023-03-05T23:24:06.339Z,7.63
2023-03-05T23:26:33.446Z,8.68
2023-03-05T23:29:00.480Z,7.80
2023-03-05T23:31:27.504Z,8.30
2023-03-05T23:33:54.659Z,6.88
2023-03-05T23:36:25.329Z,5.97
2023-03-05T23:38:57.537Z,15.73
2023-03-05T23:41:24.559Z,7.90
2023-03-05T23:43:51.559Z,6.93
2023-03-05T23:46:18.693Z,5.85
2023-03-05T23:48:45.694Z,5.85
2023-03-05T23:51:12.819Z,7.45
2023-03-05T23:53:39.844Z,5.72
2023-03-05T23:56:11.288Z,6.13
2023-03-05T23:58:38.669Z,6.47
